ROMMA est une association bénévole à but non lucratif. Votre soutien est indispensable : ADHERER à ROMMA ou FAIRE un DON

Crest - (26, Drôme)

Vallée de la Drôme (315 m)   Longitude: 5°2' E   Latitude: 44°44' N Station partenaire n°62
 

Détail journalier du     <<     >>

Température Precipitation Humidité Pression Vent Dir Rafale Dir. rafale Ensol.
Heure (°C) (mm) (%) (hPa) (km/h) (km/h) (min)
01:00 23.307810134SE16SE0
02:00 22.808210143SSE15SE0
03:00 22.708410144SE18SE0
04:00 22.408410142SE15SE0
05:00 22.308410142NE6NE0
06:00 21.108710146SSO23SSO0
07:00 20.1085101511SSO27SSO0
08:00 19.9088101516SSO32SSO0
09:00 20.1082101614SSO34SSO25
10:00 20.5076101618SSO35SSO51
11:00 21.7070101716SSO34SO47
12:00 23.6064101715SSO31NNO60
13:00 24.8056101617SSO35NNO60
14:00 25.4051101620NE37NE60
15:00 26.5050101619NE39NE49
16:00 26.1050101619NE37NE43
17:00 27.0042101516SSO34NNO60
18:00 26.9042101515NE31SSO57
19:00 26.4042101515SSO32SSO47
20:00 25.9045101514SSO26SSO21
21:00 24.2051101513SSO27SSO0
22:00 22.705510169SSO23NNE0
23:00 22.205710168SSO19SSO0
minuit 21.2062101612SSO24SSO0

Graphique du 10-08-2019

 

Serveur OMMA